ASS PETT   ATLETA DATA SEX CAT PCAT TEAM GG TEMPO GAP MEDIA
1 93 DI STASIO DIEGO 1981 M SE2 [1] TEAM RCR PIANETA BIC 6 1h09:55.20 28,3
2 73 MAZZUCCHELI SAMUEL 1986 M SE1 [1] VERGIATE CYCLING TEA 6 1h09:55.50 +0.30 28,3
3 51 RIZZOTTO CHRISTIAN 1994 M JUN [1] CICLI MAGGIONI 6 1h09:56.70 +1.50 28,3
4 121 PASQUALI FABIO 1978 M VE1 [1] CEDAS IVECO 6 1h11:09.00 +1:13.80 27,8
5 90 POLONI ERIK 1982 M SE2 [2] ASD PASSIONE BICI 6 1h11:16.50 +1:21.30 27,7
6 204 TACCHINARDI GABRIELE 1973 M VE2 [1] BIKE AND RUN CREMA 6 1h11:22.50 +1:27.30 27,7
7 72 BUSATTA ROBERTO 1987 M SE1 [2] ASD MAZZUCCHELLI RAC 6 1h11:44.50 +1:49.30 27,5
8 70 BELLOTTI IVAN 1988 M SE1 [3] ASD POLISPORTIVA BES 6 1h12:40.20 +2:45.00 27,2
9 213 AGOSTINONE DOMENICO 1970 M VE2 [2] HR TEAM 6 1h13:25.20 +3:30.00 26,9
10 222 RANESI MASSIMILIANO 1973 M VE2 [3] ASD TRB HERSH RACING 6 1h13:26.70 +3:31.50 26,9
11 95 DAMBROS GIANLUCA 1980 M SE2 [3] ASD TEAM VIPER TICIN 6 1h13:39.70 +3:44.50 26,8
12 138 RIZZOTTO CLAUDIO 1977 M VE1 [2] TEAM RCR PIANETA BIC 6 1h13:50.70 +3:55.50 26,8
13 130 PIVOTTO CLAUDIO 1979 M VE1 [3] ASD CLAMAS TEAM 6 1h13:55.00 +3:59.80 26,7
14 123 CICERANO GIANDOMENICO 1976 M VE1 [4] EX3MOTRUE 6 1h13:55.70 +4:00.50 26,7
15 342 BERTONI DAVIDE 1967 M GE1 [1] PERINI BIKE 6 1h13:58.70 +4:03.50 26,7
16 251 VINCENTI FABRIZIO 1968 M GE1 [2] ASD F.LLI RIZZOTTO C 6 1h13:59.00 +4:03.80 26,7
17 120 TRAVAGLINI MIRKO 1978 M VE1 [5] POLIZIA MILANO 6 1h13:59.70 +4:04.50 26,7
18 337 LURAGHI LUCA 1967 M GE1 [3] ASD TEAM USLENGHI 6 1h14:05.20 +4:10.00 26,7
19 352 FAPPANI GIANPAOLO 1963 M GE2 [1] CICLIMANT 6 1h14:05.50 +4:10.30 26,7
20 340 CIOCCA ROBERTO 1966 M GE1 [4] AUTOFFICINA ITALO 6 1h14:08.70 +4:13.50 26,7
21 71 CATTANEO RICCARDO 1988 M SE1 [4] ASD MAZZUCCHELLI RAC 6 1h14:15.50 +4:20.30 26,6
22 345 FERRARI CLAUDIO 1965 M GE1 [5] S.ANGELO EDILFERRAME 6 1h14:36.20 +4:41.00 26,5
23 214 FORTUNATO ALBERTO 1974 M VE2 [4] CICLIMANT 6 1h14:37.70 +4:42.50 26,5
24 343 DI STASIO PATRIZIO 1965 M GE1 [6] TEAM RCR PIANETA BIC 6 1h14:44.00 +4:48.80 26,4
25 99 MOTTA FRANCESCO 1983 M SE2 [4] 2X2 TEAM BRENNA 6 1h14:47.70 +4:52.50 26,4
26 215 BONACINA MICHELE 1974 M VE2 [5] PAVAN FREE BIKE 6 1h14:53.50 +4:58.30 26,4
27 221 DELLANGELO MARCO 1971 M VE2 [6] ASD TEAM USLENGHI 6 1h15:18.50 +5:23.30 26,2
28 220 CORSINI PAOLO 1971 M VE2 [7] CIGNONE 6 1h15:20.70 +5:25.50 26,2
29 129 GARAMPAZZI MAURO 1976 M VE1 [6] MANTOVANI 6 1h15:35.70 +5:40.50 26,1
30 359 OMODEI FRANCO 1963 M GE2 [2] ASD G.S. AL-GOM 6 1h15:40.20 +5:45.00 26,1
31 363 MANZONI ROBERTO 1963 M GE2 [3] ASD TEAM XBIKE 6 1h15:40.50 +5:45.30 26,1
32 76 MONTEMURRO GIOVANNI 1987 M SE1 [5] ASD 2 X 2 TEAM BRENN 6 1h15:48.70 +5:53.50 26,1
33 98 SALMOIRAGHI DIEGO 1981 M SE2 [5] ASD CLAMAS TEAM 6 1h15:50.20 +5:55.00 26,1
34 96 BEGHI DANTE 1983 M SE2 [6] ASD F.LLI RIZZOTTO C 6 1h15:59.50 +6:04.30 26
35 261 VACCHINI MARCO 1965 M GE1 [7] ASD F.LLI RIZZOTTO C 6 1h16:13.70 +6:18.50 25,9
36 336 MERICO ALVARO 1966 M GE1 [8] ASD PASSIONE BICI 6 1h16:14.20 +6:19.00 25,9
37 74 STANI MATTEO 1986 M SE1 [6] TEAM RCR PIANETA BIC 6 1h16:15.00 +6:19.80 25,9
38 128 PLIZZARI DEIRO 1978 M VE1 [7] ASD PASSIONE BICI 6 1h16:34.50 +6:39.30 25,8
39 348 BRAMBILLA MAURIZIO 1969 M GE1 [9] PAVANI FREE BIKE 6 1h16:36.20 +6:41.00 25,8
40 203 BALLARE GABRIELE 1972 M VE2 [8] HR TEAM 6 1h16:45.20 +6:50.00 25,7
41 211 CARRUBBA EMANUELE 1973 M VE2 [9] ASD RAMPI CLUB BRIAN 6 1h16:48.00 +6:52.80 25,7
42 208 CAPRETTI GIANCARLO 1970 M VE2 [10] CICLIMANT 6 1h16:49.00 +6:53.80 25,7
43 358 LOMBARDI ROBERTO 1962 M GE2 [4] ASD G.S. AL-GOM 6 1h17:12.50 +7:17.30 25,6
44 353 IACONELLI SERGIO 1964 M GE2 [5] FIGHT VIELLE 6 1h17:13.70 +7:18.50 25,6
45 131 TANGHETTI CLAUDIO 1978 M VE1 [8] SPRINT BIKE LUMEZZAN 6 1h17:25.70 +7:30.50 25,5
46 346 CERATI ANDREA 1966 M GE1 [10] PEDALE CASTELLANO 6 1h17:50.20 +7:55.00 25,4
47 356 BOSSI SERGIO 1964 M GE2 [6] ASD PASSIONE BICI 6 1h17:57.00 +8:01.80 25,4
48 94 BRUSCHI STEFANO 1982 M SE2 [7] ASD F.LLI RIZZOTTO C 6 1h18:00.70 +8:05.50 25,3
49 341 MARASCHI CESARE 1967 M GE1 [11] UC. BORGHETTO 6 1h18:34.50 +8:39.30 25,1
50 136 CIGLIOLA MAURIZIO 1975 M VE1 [9] UNA TCS 6 1h19:35.20 +9:40.00 24,8
51 347 MILANI STEFANO 1966 M GE1 [12] NON SOLO BICI 6 1h19:45.00 +9:49.80 24,8
52 344 VALLI VITTORIO 1966 M GE1 [13] SPREAFICO VELO PLUS 6 1h20:26.70 +10:31.50 24,6
53 201 ROSSI MASSIMO 1971 M VE2 [11] ASD LA FENICE 6 1h20:58.70 +11:03.50 24,4
54 50 NOLI LUCA 2000 M JUN [2] ASD F.LLI RIZZOTTO C 6 1h21:06.20 +11:11.00 24,4
55 313 CALVI DIEGO SERAFINO 1968 M GE1 [14] COLOGNESE BIKE 6 1h21:14.70 +11:19.50 24,3
56 223 RIBOLDI EMILIANO 1971 M VE2 [12] BIKE AND RUN CREMA 6 1h21:42.50 +11:47.30 24,2
57 92 MARANGON MATTEO 1981 M SE2 [8] ASD F.LLI RIZZOTTO C 6 1h22:47.40 +12:52.20 23,9
58 404 ZAPPA ROBERTO 1956 M SGA [1] BIKE TEAM BRUCIATI 5 1h06:23.50 +1 Giro 24,8
59 403 BEGHI GIANPIERO 1959 M SGA [2] ASD F.LLI RIZZOTTO C 5 1h07:23.70 +1 Giro 24,4
60 406 BALDUCCI COSIMO 1956 M SGA [3] ASD F.LLI RIZZOTTO C 5 1h07:26.00 +1 Giro 24,4
61 401 SUCCU GIANNINO 1955 M SGA [4] ASD TEAM USLENGHI 5 1h07:55.00 +1 Giro 24,2
62 361 GRITTI GIUSEPPE 1962 M GE2 [7] FRANCESCONI 5 1h08:24.00 +1 Giro 24,1
63 350 GIPPONI MARCO 1962 M GE2 [8] BIKE AND RUN CREMA 5 1h08:27.20 +1 Giro 24,1
64 366 DEVECCHI MAURIZIO 1962 M GE2 [9] ORIO BIKE 5 1h08:28.00 +1 Giro 24
65 91 MADINI ALEX 1980 M SE2 [9] PASSIONE BICI 5 1h08:28.70 +1 Giro 24
66 338 MANTEGARI ALDO 1965 M GE1 [15] CICLIMANT 5 1h08:45.00 +1 Giro 24
67 437 BANO GIORGIO 1954 M SGB [1] VIGILI DEL FUOCO VAR 5 1h09:03.00 +1 Giro 23,8
68 435 SCORBATTI PIERLUIGI 1954 M SGB [2] VELO CLUB PAVIA 5 1h09:38.00 +1 Giro 23,6
69 200 PRATI LODOVICO 1972 M VE2 [13] AVIS FIORENZUOLA 5 1h09:40.50 +1 Giro 23,6
70 439 ZAPPA CARLO 1954 M SGB [3] ASD CYCLING GHEDI 5 1h09:44.00 +1 Giro 23,6
71 357 ALABISIO GIOVANNI 1963 M GE2 [10] CICLIMANT 5 1h10:23.70 +1 Giro 23,4
72 571   LEPRE PATRIZIA 1975 F DOB [1] ASD PASSIONE BICI 5 1h10:33.50 +1 Giro 23,3
73 438 SOMMARIVA GIANCARLO 1951 M SGB [4] SPEEDY BIKE 5 1h10:38.20 +1 Giro 23,3
74 405 SCOTTI NATALINO 1957 M SGA [5] LA ORSI BIKE 5 1h10:43.20 +1 Giro 23,3
75 400 BELLI GIUSEPPE 1958 M SGA [6] SCUDERIA CICLISTICA  5 1h10:55.70 +1 Giro 23,2
76 433 GUARNIERI CLAUDIO 1949 M SGB [5] ASD F.LLI RIZZOTTO C 5 1h11:04.70 +1 Giro 23,2
77 97 MOSCHELLA ANDREA 1984 M SE2 [10] TEAM BIKE SEGRATE 5 1h11:07.50 +1 Giro 23,1
78 441 BRUMANA SANTO 1947 M SGB [6] ASD MTB SUISIO 5 1h12:04.70 +1 Giro 22,8
79 349 CELESTE MASSIMO 1966 M GE1 [16] VELO CLUB PAVIA 5 1h12:13.20 +1 Giro 22,8
80 500   RESTEGHELLI LINDA 1983 F DOA [1] ASD PASSIONE BICI 5 1h12:27.20 +1 Giro 22,7
81 339 MAPELLI MARCO 1966 M GE1 [17] SPREAFICO VELO PLUS 5 1h12:31.50 +1 Giro 22,7
82 430 RIZZOTTO IVAN 1947 M SGB [7] TEAM RCR PIANETA BIC 5 1h12:49.70 +1 Giro 22,6
83 252 ACHILI MARCO 1965 M GE1 [18] CASILLO MASERATI 5 1h12:59.20 +1 Giro 22,6
84 572   ETOSSI SIMONA 1972 F DOB [2] ASD POLISPORTIVA BES 5 1h13:05.00 +1 Giro 22,5
85 436 MILANI FRANCESCO 1951 M SGB [8] ASD LAKOTA BIKE RONZ 5 1h13:50.70 +1 Giro 22,3
86 365 MORETTI RAFFAELE 1961 M GE2 [11] ASD F.LLI RIZZOTTO C 5 1h14:26.00 +1 Giro 22,1
87 354 BARCILLESI PAOLO 1962 M GE2 [12] ASD PASSIONE BICI 5 1h15:01.70 +1 Giro 21,9
88 440 SBRICCOLI ALDO 1951 M SGB [9] CICLOAMATORI TURANO  5 1h15:44.70 +1 Giro 21,7
89 431 BALLARE GIOVANNI 1946 M SGB [10] HR TEAM 5 1h16:04.70 +1 Giro 21,6
90 362 MARTINELLO VANNI 1961 M GE2 [13] ASD TEAM VIPER TICIN 5 1h17:20.70 +1 Giro 21,3
91 526   MARIANI VALENTINA 1990 F DOA [2] ASD MAZZUCCHELLI RAC 5 1h17:35.50 +1 Giro 21,2
92 402 PROVINO ANTONIO 1959 M SGA [7] ASD MAZZUCCHELLI RAC 5 1h18:30.70 +1 Giro 21
93 75 BOMBELLI RUGGERO 1987 M SE1 [7] ASD PASSIONE BICI 5 1h22:04.90 +1 Giro 20,1
94 224 CELANI SILVANO 1972 M VE2 [14] SC PEDALE PAULLESE 5 1h24:51.70 +1 Giro 19,4
95 364 MAPELLI CARLO 1960 M GE2 [14] KTM PROTEK DAMA 4 1h00:23.50 +2 Giri 21,8
96 570   PERLETTI CLARA 1954 F DOB [3] CICLI BATTISTELLA MT 4 1h09:56.70 +2 Giri 18,8
97 432 NEGRI GAETANO 1945 M SGB [11] ASD F.LLI RIZZOTTO C 4 1h12:58.70 +2 Giri 18
98 434 LATARTARA NICOLA 1947 M SGB [12] ASD F.LLI RIZZOTTO C 4 1h17:42.50 +2 Giri 16,9
99 360 MAZZUCCHELLI MASSIMO 1960 M GE2 [15] ASD MAZZUCCHELLI RAC 3 47:07.30 +3 Giri 21
100 580   BALLARE ALICE 2002 F DOJ [1] HR TEAM 3 1h09:57.70 +3 Giri 14,1
101 1 BATTILOTTI RENATO 2004 M DEB [1] ASD TRB HERSH RACING 2 29:53.40 +4 Giri 22